createdAt,value
2018-07-06T00:01:49.367Z,4.30
2018-07-06T00:04:34.885Z,3.80
2018-07-06T00:07:20.568Z,5.90
2018-07-06T00:10:06.247Z,4.53
2018-07-06T00:12:51.755Z,4.53
2018-07-06T00:15:31.965Z,4.20
2018-07-06T00:18:17.882Z,3.07
2018-07-06T00:21:03.351Z,4.17
2018-07-06T00:23:48.606Z,4.90
2018-07-06T00:26:34.036Z,4.07
2018-07-06T00:29:19.648Z,5.87
2018-07-06T00:32:05.137Z,3.97
2018-07-06T00:34:50.628Z,4.23
2018-07-06T00:37:36.343Z,6.50
2018-07-06T00:40:21.908Z,3.73
2018-07-06T00:43:07.501Z,7.43
2018-07-06T00:45:53.358Z,3.33
2018-07-06T00:48:38.870Z,5.37
2018-07-06T00:51:24.340Z,4.17
2018-07-06T00:54:09.814Z,4.13
2018-07-06T00:56:55.423Z,4.40
2018-07-06T00:59:40.921Z,5.43
2018-07-06T01:02:20.852Z,5.37
2018-07-06T01:05:06.265Z,5.07
2018-07-06T01:07:51.817Z,5.70
2018-07-06T01:10:37.284Z,4.50
2018-07-06T01:13:22.728Z,5.33
2018-07-06T01:16:08.300Z,5.43
2018-07-06T01:18:53.848Z,4.53
2018-07-06T01:21:39.364Z,4.00
2018-07-06T01:24:25.069Z,3.87
2018-07-06T01:27:10.544Z,3.80
2018-07-06T01:29:55.896Z,4.10
2018-07-06T01:32:35.587Z,4.30
2018-07-06T01:35:21.051Z,5.73
2018-07-06T01:38:06.890Z,5.50
2018-07-06T01:40:52.500Z,5.23
2018-07-06T01:43:37.939Z,6.63
2018-07-06T01:46:23.321Z,5.47
2018-07-06T01:49:08.956Z,4.77
2018-07-06T01:51:54.561Z,7.57
2018-07-06T01:54:40.325Z,5.03
2018-07-06T01:57:25.674Z,6.97
2018-07-06T02:00:05.152Z,4.57
2018-07-06T02:02:50.700Z,7.20
2018-07-06T02:05:36.206Z,7.27
2018-07-06T02:08:21.814Z,7.07
2018-07-06T02:11:07.362Z,7.63
2018-07-06T02:13:52.798Z,8.17
2018-07-06T02:16:38.484Z,6.53
2018-07-06T02:19:23.707Z,7.67
2018-07-06T02:22:09.199Z,6.00
2018-07-06T02:24:54.658Z,6.87
2018-07-06T02:27:40.055Z,5.43
2018-07-06T02:30:25.276Z,6.40
2018-07-06T02:33:10.728Z,6.37
2018-07-06T02:35:56.179Z,6.30
2018-07-06T02:38:41.529Z,7.20
2018-07-06T02:41:21.268Z,5.73
2018-07-06T02:44:00.883Z,7.80
2018-07-06T02:46:46.395Z,6.27
2018-07-06T02:49:26.068Z,7.13
2018-07-06T02:52:11.436Z,5.80
2018-07-06T02:54:56.957Z,8.47
2018-07-06T02:57:42.403Z,6.67
2018-07-06T03:00:27.724Z,8.47
2018-07-06T03:03:13.051Z,6.57
2018-07-06T03:05:58.492Z,8.60
2018-07-06T03:08:44.088Z,7.30
2018-07-06T03:11:29.538Z,7.33
2018-07-06T03:14:15.030Z,5.70
2018-07-06T03:17:00.405Z,6.00
2018-07-06T03:19:45.972Z,7.37
2018-07-06T03:22:31.509Z,6.07
2018-07-06T03:25:17.116Z,5.23
2018-07-06T03:28:02.817Z,6.40
2018-07-06T03:30:48.097Z,5.33
2018-07-06T03:33:33.459Z,6.37
2018-07-06T03:36:18.899Z,5.03
2018-07-06T03:38:58.658Z,5.53
2018-07-06T03:41:44.080Z,6.17
2018-07-06T03:44:29.647Z,9.03
2018-07-06T03:47:15.478Z,10.37
2018-07-06T03:50:01.146Z,8.23
2018-07-06T03:52:46.608Z,6.57
2018-07-06T03:55:31.977Z,7.53
2018-07-06T03:58:17.564Z,6.30
2018-07-06T04:01:03.279Z,7.30
2018-07-06T04:03:48.926Z,8.70
2018-07-06T04:06:34.545Z,7.37
2018-07-06T04:09:20.232Z,8.33
2018-07-06T04:12:05.861Z,9.37
2018-07-06T04:14:51.239Z,6.70
2018-07-06T04:17:36.987Z,7.87
2018-07-06T04:20:22.476Z,7.67
2018-07-06T04:23:02.428Z,5.97
2018-07-06T04:25:47.826Z,7.17
2018-07-06T04:28:33.276Z,8.17
2018-07-06T04:31:18.701Z,7.23
2018-07-06T04:34:04.249Z,10.33
2018-07-06T04:36:49.994Z,11.43
2018-07-06T04:39:35.691Z,9.47
2018-07-06T04:42:21.121Z,12.97
2018-07-06T04:45:06.517Z,13.10
2018-07-06T04:47:51.987Z,12.03
2018-07-06T04:50:37.432Z,15.00
2018-07-06T04:53:23.168Z,14.60
2018-07-06T04:56:08.835Z,13.50
2018-07-06T04:58:54.486Z,13.17
2018-07-06T05:01:40.245Z,11.50
2018-07-06T05:04:25.752Z,13.77
2018-07-06T05:07:05.408Z,15.57
2018-07-06T05:09:51.208Z,16.33
2018-07-06T05:12:36.550Z,12.53
2018-07-06T05:15:21.876Z,17.27
2018-07-06T05:18:07.204Z,18.03
2018-07-06T05:20:52.772Z,14.07
2018-07-06T05:23:38.324Z,12.77
2018-07-06T05:26:23.704Z,15.43
2018-07-06T05:29:09.092Z,22.13
2018-07-06T05:31:54.527Z,18.93
2018-07-06T05:34:40.605Z,20.37
2018-07-06T05:37:26.143Z,16.57
2018-07-06T05:40:11.584Z,16.60
2018-07-06T05:42:51.258Z,18.47
2018-07-06T05:45:36.672Z,18.83
2018-07-06T05:48:22.039Z,19.57
2018-07-06T05:51:07.337Z,18.80
2018-07-06T05:53:52.755Z,20.57
2018-07-06T05:56:38.765Z,22.20
2018-07-06T05:59:24.313Z,23.37
2018-07-06T06:02:09.866Z,21.20
2018-07-06T06:04:55.228Z,20.97
2018-07-06T06:07:24.708Z,24.87
2018-07-06T06:09:55.192Z,22.43
2018-07-06T06:12:30.556Z,22.40
2018-07-06T06:15:00.125Z,22.97
2018-07-06T06:17:28.802Z,21.70
2018-07-06T06:19:58.210Z,20.63
2018-07-06T06:22:28.106Z,23.20
2018-07-06T06:24:56.704Z,24.07
2018-07-06T06:27:25.208Z,20.77
2018-07-06T06:29:53.882Z,23.50
2018-07-06T06:32:23.820Z,24.30
2018-07-06T06:34:52.113Z,23.17
2018-07-06T06:37:20.749Z,24.87
2018-07-06T06:39:49.487Z,17.57
2018-07-06T06:42:18.139Z,17.37
2018-07-06T06:44:47.079Z,18.47
2018-07-06T06:47:15.897Z,18.60
2018-07-06T06:49:48.530Z,15.57
2018-07-06T06:52:17.419Z,19.73
2018-07-06T06:54:45.834Z,23.77
2018-07-06T06:57:14.703Z,18.30
2018-07-06T06:59:43.515Z,14.23
2018-07-06T07:02:12.250Z,18.37
2018-07-06T07:04:40.819Z,14.93
2018-07-06T07:07:09.358Z,15.57
2018-07-06T07:09:38.140Z,17.67
2018-07-06T07:12:06.594Z,20.67
2018-07-06T07:14:35.304Z,21.77
2018-07-06T07:17:04.157Z,14.40
2018-07-06T07:19:32.812Z,19.63
2018-07-06T07:22:03.304Z,18.57
2018-07-06T07:24:32.014Z,18.77
2018-07-06T07:27:01.315Z,16.97
2018-07-06T07:29:30.155Z,17.10
2018-07-06T07:31:59.668Z,16.73
2018-07-06T07:34:28.285Z,18.87
2018-07-06T07:36:57.228Z,16.43
2018-07-06T07:39:25.865Z,20.53
2018-07-06T07:41:54.804Z,17.60
2018-07-06T07:44:23.384Z,17.97
2018-07-06T07:46:51.920Z,20.10
2018-07-06T07:49:20.750Z,18.73
2018-07-06T07:52:07.665Z,20.73
2018-07-06T07:54:47.022Z,17.23
2018-07-06T07:57:16.157Z,20.73
2018-07-06T07:59:45.584Z,18.90
2018-07-06T08:02:15.369Z,19.60
2018-07-06T08:04:49.924Z,14.33
2018-07-06T08:07:19.820Z,19.00
2018-07-06T08:09:48.978Z,17.03
2018-07-06T08:12:21.153Z,12.23
2018-07-06T08:14:50.971Z,15.83
2018-07-06T08:17:19.645Z,14.70
2018-07-06T08:19:48.143Z,22.93
2018-07-06T08:22:17.485Z,13.77
2018-07-06T08:24:45.979Z,10.33
2018-07-06T08:27:18.290Z,13.33
2018-07-06T08:29:46.711Z,17.83
2018-07-06T08:32:18.708Z,15.97
2018-07-06T08:35:08.230Z,11.80
2018-07-06T08:38:07.061Z,12.53
2018-07-06T08:40:37.998Z,13.50
2018-07-06T08:43:06.857Z,18.87
2018-07-06T08:45:35.636Z,14.83
2018-07-06T08:48:04.260Z,15.23
2018-07-06T08:50:33.072Z,15.80
2018-07-06T08:53:06.522Z,13.67
2018-07-06T08:55:35.456Z,15.47
2018-07-06T08:58:04.153Z,18.33
2018-07-06T09:00:32.708Z,14.83
2018-07-06T09:03:01.465Z,14.23
2018-07-06T09:05:30.169Z,11.93
2018-07-06T09:07:58.704Z,11.33
2018-07-06T09:10:27.148Z,11.50
2018-07-06T09:12:55.895Z,15.80
2018-07-06T09:15:24.348Z,13.30
2018-07-06T09:17:54.177Z,13.57
2018-07-06T09:20:26.599Z,13.40
2018-07-06T09:22:55.478Z,15.40
2018-07-06T09:25:24.168Z,17.53
2018-07-06T09:27:52.663Z,15.03
2018-07-06T09:30:21.247Z,14.93
2018-07-06T09:32:49.999Z,17.33
2018-07-06T09:35:18.574Z,16.20
2018-07-06T09:37:46.825Z,16.70
2018-07-06T09:40:15.576Z,13.17
2018-07-06T09:42:44.299Z,13.70
2018-07-06T09:45:12.776Z,12.47
2018-07-06T09:47:41.172Z,19.20
2018-07-06T09:50:09.524Z,15.50
2018-07-06T09:52:37.873Z,12.53
2018-07-06T09:55:06.472Z,16.90
2018-07-06T09:57:34.883Z,13.33
2018-07-06T10:00:05.426Z,15.20
2018-07-06T10:02:33.718Z,13.53
2018-07-06T10:05:02.249Z,13.13
2018-07-06T10:07:30.636Z,14.40
2018-07-06T10:09:59.204Z,16.60
2018-07-06T10:12:27.905Z,18.73
2018-07-06T10:14:56.281Z,23.20
2018-07-06T10:17:24.860Z,14.13
2018-07-06T10:19:53.357Z,18.80
2018-07-06T10:22:22.020Z,15.00
2018-07-06T10:24:51.139Z,14.10
2018-07-06T10:27:20.081Z,20.53
2018-07-06T10:29:59.185Z,11.70
2018-07-06T10:32:28.649Z,13.00
2018-07-06T10:34:58.521Z,17.03
2018-07-06T10:37:27.911Z,12.80
2018-07-06T10:39:56.479Z,12.50
2018-07-06T10:42:24.941Z,17.87
2018-07-06T10:44:53.815Z,20.50
2018-07-06T10:47:22.406Z,15.17
2018-07-06T10:49:51.259Z,15.60
2018-07-06T10:52:19.751Z,15.43
2018-07-06T10:54:48.703Z,13.90
2018-07-06T10:57:17.490Z,12.80
2018-07-06T10:59:46.428Z,11.93
2018-07-06T11:02:14.989Z,12.27
2018-07-06T11:04:43.449Z,10.30
2018-07-06T11:07:12.012Z,9.43
2018-07-06T11:09:40.687Z,10.87
2018-07-06T11:12:09.440Z,10.63
2018-07-06T11:14:37.888Z,9.63
2018-07-06T11:17:06.455Z,11.57
2018-07-06T11:19:35.182Z,10.00
2018-07-06T11:22:03.523Z,9.40
2018-07-06T11:24:33.354Z,9.80
2018-07-06T11:27:02.006Z,13.20
2018-07-06T11:29:30.562Z,9.00
2018-07-06T11:31:59.143Z,9.83
2018-07-06T11:34:27.826Z,7.23
2018-07-06T11:36:56.366Z,7.67
2018-07-06T11:39:25.062Z,9.77
2018-07-06T11:41:53.556Z,7.93
2018-07-06T11:44:22.134Z,8.60
2018-07-06T11:46:51.070Z,6.40
2018-07-06T11:49:19.779Z,12.20
2018-07-06T11:51:48.465Z,7.50
2018-07-06T11:54:17.249Z,9.80
2018-07-06T11:56:45.818Z,9.67
2018-07-06T11:59:14.664Z,6.83
2018-07-06T12:01:43.429Z,13.13
2018-07-06T12:04:12.334Z,19.80
2018-07-06T12:06:41.021Z,8.10
2018-07-06T12:09:09.597Z,18.17
2018-07-06T12:11:38.170Z,8.20
2018-07-06T12:14:06.996Z,7.30
2018-07-06T12:16:35.901Z,18.80
2018-07-06T12:19:04.597Z,12.23
2018-07-06T12:21:35.503Z,8.87
2018-07-06T12:24:04.258Z,10.63
2018-07-06T12:26:36.695Z,8.57
2018-07-06T12:29:06.427Z,9.33
2018-07-06T12:31:41.793Z,8.50
2018-07-06T12:34:15.904Z,9.73
2018-07-06T12:36:47.001Z,7.53
2018-07-06T12:39:21.156Z,9.47
2018-07-06T12:41:53.333Z,6.70
2018-07-06T12:44:21.773Z,6.17
2018-07-06T12:46:50.385Z,7.47
2018-07-06T12:49:18.936Z,6.90
2018-07-06T12:51:47.492Z,10.57
2018-07-06T12:54:16.142Z,10.73
2018-07-06T12:56:44.655Z,7.50
2018-07-06T12:59:13.055Z,9.90
2018-07-06T13:01:41.720Z,6.13
2018-07-06T13:04:11.829Z,8.30
2018-07-06T13:06:40.811Z,8.97
2018-07-06T13:09:10.304Z,8.70
2018-07-06T13:11:39.333Z,6.83
2018-07-06T13:14:07.852Z,10.87
2018-07-06T13:16:36.568Z,8.23
2018-07-06T13:19:05.193Z,10.00
2018-07-06T13:21:35.779Z,9.23
2018-07-06T13:24:04.684Z,8.00
2018-07-06T13:26:34.126Z,5.70
2018-07-06T13:29:04.612Z,6.70
2018-07-06T13:31:33.190Z,7.50
2018-07-06T13:34:01.590Z,8.40
2018-07-06T13:36:30.156Z,5.67
2018-07-06T13:38:58.960Z,8.90
2018-07-06T13:41:27.892Z,7.60
2018-07-06T13:43:57.067Z,9.73
2018-07-06T13:46:25.667Z,8.53
2018-07-06T13:48:54.124Z,12.63
2018-07-06T13:51:22.753Z,8.93
2018-07-06T13:53:51.448Z,8.00
2018-07-06T13:56:19.964Z,8.40
2018-07-06T13:58:48.694Z,8.63
2018-07-06T14:01:17.176Z,8.77
2018-07-06T14:03:45.625Z,7.33
2018-07-06T14:06:14.199Z,7.37
2018-07-06T14:08:42.777Z,5.70
2018-07-06T14:11:11.369Z,5.40
2018-07-06T14:13:39.928Z,8.57
2018-07-06T14:16:08.583Z,10.60
2018-07-06T14:18:36.853Z,6.17
2018-07-06T14:21:05.875Z,10.30
2018-07-06T14:23:34.494Z,6.80
2018-07-06T14:26:04.303Z,7.83
2018-07-06T14:28:35.841Z,6.07
2018-07-06T14:31:05.907Z,7.60
2018-07-06T14:33:34.823Z,7.40
2018-07-06T14:36:03.287Z,5.87
2018-07-06T14:38:38.458Z,11.07
2018-07-06T14:41:07.360Z,7.20
2018-07-06T14:43:37.149Z,9.13
2018-07-06T14:46:06.253Z,4.53
2018-07-06T14:48:39.551Z,9.37
2018-07-06T14:51:08.632Z,7.53
2018-07-06T14:53:37.456Z,9.00
2018-07-06T14:56:05.927Z,7.13
2018-07-06T14:58:34.622Z,6.00
2018-07-06T15:01:04.164Z,8.37
2018-07-06T15:03:32.620Z,9.67
2018-07-06T15:06:04.274Z,6.90
2018-07-06T15:08:32.870Z,6.40
2018-07-06T15:11:01.841Z,5.10
2018-07-06T15:13:33.137Z,7.67
2018-07-06T15:16:01.683Z,6.97
2018-07-06T15:18:30.523Z,5.03
2018-07-06T15:20:58.855Z,7.63
2018-07-06T15:23:27.305Z,4.40
2018-07-06T15:25:55.894Z,9.97
2018-07-06T15:28:24.359Z,4.87
2018-07-06T15:30:53.073Z,4.87
2018-07-06T15:33:28.215Z,6.73
2018-07-06T15:35:56.916Z,5.03
2018-07-06T15:38:25.571Z,5.17
2018-07-06T15:40:54.282Z,6.00
2018-07-06T15:43:23.105Z,5.33
2018-07-06T15:45:51.620Z,6.33
2018-07-06T15:48:20.120Z,4.63
2018-07-06T15:50:48.745Z,5.57
2018-07-06T15:53:17.187Z,7.90
2018-07-06T15:55:45.778Z,5.00
2018-07-06T15:58:14.597Z,6.07
2018-07-06T16:00:43.089Z,5.40
2018-07-06T16:03:11.493Z,5.50
2018-07-06T16:05:39.883Z,5.63
2018-07-06T16:08:08.200Z,5.40
2018-07-06T16:10:36.673Z,10.57
2018-07-06T16:13:05.282Z,4.53
2018-07-06T16:15:33.908Z,5.47
2018-07-06T16:18:02.629Z,4.63
2018-07-06T16:20:31.161Z,3.87
2018-07-06T16:22:59.773Z,7.97
2018-07-06T16:25:28.323Z,6.57
2018-07-06T16:27:57.878Z,6.77
2018-07-06T16:30:26.706Z,7.47
2018-07-06T16:32:55.430Z,6.07
2018-07-06T16:35:23.903Z,7.57
2018-07-06T16:37:52.108Z,6.67
2018-07-06T16:40:20.929Z,7.50
2018-07-06T16:42:49.864Z,10.27
2018-07-06T16:45:18.202Z,6.70
2018-07-06T16:47:46.628Z,5.30
2018-07-06T16:50:15.069Z,5.93
2018-07-06T16:52:43.756Z,5.47
2018-07-06T16:55:12.713Z,4.40
2018-07-06T16:57:41.585Z,6.00
2018-07-06T17:00:10.250Z,5.07
2018-07-06T17:02:38.678Z,3.83
2018-07-06T17:05:07.373Z,4.23
2018-07-06T17:07:36.053Z,5.00
2018-07-06T17:10:04.605Z,9.23
2018-07-06T17:12:33.008Z,5.80
2018-07-06T17:15:01.657Z,4.40
2018-07-06T17:17:30.213Z,4.27
2018-07-06T17:19:58.721Z,7.37
2018-07-06T17:22:27.187Z,5.23
2018-07-06T17:24:55.873Z,9.20
2018-07-06T17:27:24.325Z,8.77
2018-07-06T17:29:52.931Z,4.97
2018-07-06T17:32:21.682Z,3.53
2018-07-06T17:34:50.679Z,6.87
2018-07-06T17:37:19.445Z,5.20
2018-07-06T17:39:47.866Z,4.20
2018-07-06T17:42:16.424Z,4.77
2018-07-06T17:44:44.950Z,6.37
2018-07-06T17:47:13.621Z,4.57
2018-07-06T17:49:42.169Z,7.80
2018-07-06T17:52:11.016Z,5.07
2018-07-06T17:54:39.904Z,4.70
2018-07-06T17:57:08.431Z,5.27
2018-07-06T17:59:37.000Z,8.20
2018-07-06T18:02:05.806Z,6.00
2018-07-06T18:04:34.486Z,9.43
2018-07-06T18:07:03.335Z,4.00
2018-07-06T18:09:32.016Z,5.73
2018-07-06T18:12:00.646Z,6.93
2018-07-06T18:14:29.365Z,5.60
2018-07-06T18:16:57.926Z,4.93
2018-07-06T18:19:26.618Z,8.03
2018-07-06T18:21:56.277Z,5.23
2018-07-06T18:24:25.193Z,8.40
2018-07-06T18:26:53.774Z,6.77
2018-07-06T18:29:22.200Z,8.13
2018-07-06T18:31:50.932Z,6.17
2018-07-06T18:34:19.483Z,6.50
2018-07-06T18:36:48.239Z,5.50
2018-07-06T18:39:16.921Z,9.93
2018-07-06T18:41:45.542Z,6.93
2018-07-06T18:44:14.018Z,6.27
2018-07-06T18:46:42.533Z,5.83
2018-07-06T18:49:11.113Z,6.47
2018-07-06T18:51:40.017Z,5.63
2018-07-06T18:54:08.893Z,7.07
2018-07-06T18:56:37.574Z,6.57
2018-07-06T18:59:06.498Z,6.97
2018-07-06T19:01:35.206Z,6.43
2018-07-06T19:04:03.737Z,6.73
2018-07-06T19:06:32.576Z,9.40
2018-07-06T19:09:01.236Z,6.43
2018-07-06T19:11:29.892Z,7.70
2018-07-06T19:13:58.492Z,6.93
2018-07-06T19:16:27.349Z,6.83
2018-07-06T19:18:56.265Z,7.73
2018-07-06T19:21:25.378Z,8.40
2018-07-06T19:23:54.343Z,4.80
2018-07-06T19:26:23.303Z,6.83
2018-07-06T19:28:52.066Z,6.40
2018-07-06T19:31:21.062Z,13.17
2018-07-06T19:33:49.934Z,6.27
2018-07-06T19:36:18.655Z,7.90
2018-07-06T19:38:47.742Z,6.77
2018-07-06T19:41:16.456Z,8.87
2018-07-06T19:43:45.228Z,4.73
2018-07-06T19:46:14.078Z,9.13
2018-07-06T19:48:42.940Z,5.17
2018-07-06T19:51:11.655Z,5.40
2018-07-06T19:53:40.253Z,3.50
2018-07-06T19:56:08.861Z,8.20
2018-07-06T19:58:37.497Z,6.03
2018-07-06T20:01:07.170Z,5.03
2018-07-06T20:03:36.137Z,7.53
2018-07-06T20:06:05.653Z,7.67
2018-07-06T20:08:34.375Z,5.67
2018-07-06T20:11:03.023Z,7.23
2018-07-06T20:13:31.402Z,8.80
2018-07-06T20:15:59.816Z,4.50
2018-07-06T20:18:28.277Z,6.10
2018-07-06T20:20:57.466Z,6.77
2018-07-06T20:23:26.063Z,5.43
2018-07-06T20:25:54.608Z,5.80
2018-07-06T20:28:23.148Z,9.43
2018-07-06T20:30:51.595Z,7.03
2018-07-06T20:33:20.491Z,5.63
2018-07-06T20:35:49.261Z,3.27
2018-07-06T20:38:17.715Z,8.10
2018-07-06T20:40:46.341Z,6.13
2018-07-06T20:43:15.074Z,4.80
2018-07-06T20:45:43.792Z,5.50
2018-07-06T20:48:12.383Z,6.77
2018-07-06T20:50:40.784Z,4.33
2018-07-06T20:53:09.276Z,8.70
2018-07-06T20:55:37.949Z,7.10
2018-07-06T20:58:06.493Z,6.40
2018-07-06T21:00:35.133Z,7.37
2018-07-06T21:03:03.813Z,6.10
2018-07-06T21:05:32.672Z,5.43
2018-07-06T21:08:01.564Z,5.00
2018-07-06T21:10:29.991Z,7.13
2018-07-06T21:12:58.457Z,7.40
2018-07-06T21:15:27.156Z,8.23
2018-07-06T21:17:55.828Z,4.70
2018-07-06T21:20:24.553Z,9.33
2018-07-06T21:22:53.116Z,8.07
2018-07-06T21:25:21.557Z,6.10
2018-07-06T21:27:50.028Z,6.33
2018-07-06T21:30:18.426Z,5.77
2018-07-06T21:32:46.731Z,6.17
2018-07-06T21:35:15.477Z,6.23
2018-07-06T21:37:43.955Z,6.43
2018-07-06T21:40:12.493Z,7.17
2018-07-06T21:42:41.172Z,3.67
2018-07-06T21:45:09.870Z,12.00
2018-07-06T21:47:38.555Z,4.40
2018-07-06T21:50:07.207Z,8.17
2018-07-06T21:52:35.820Z,6.00
2018-07-06T21:55:04.383Z,6.00
2018-07-06T21:57:33.444Z,7.80
2018-07-06T22:00:02.069Z,4.40
2018-07-06T22:02:30.597Z,6.00
2018-07-06T22:04:59.208Z,5.77
2018-07-06T22:07:27.836Z,8.03
2018-07-06T22:09:56.660Z,6.30
2018-07-06T22:12:25.588Z,6.77
2018-07-06T22:14:54.377Z,6.20
2018-07-06T22:17:22.882Z,6.93
2018-07-06T22:19:51.850Z,6.20
2018-07-06T22:22:20.299Z,6.67
2018-07-06T22:24:49.013Z,9.63
2018-07-06T22:27:17.511Z,12.70
2018-07-06T22:29:46.136Z,8.03
2018-07-06T22:32:15.773Z,3.60
2018-07-06T22:34:45.273Z,6.43
2018-07-06T22:37:13.965Z,5.27
2018-07-06T22:39:43.677Z,7.23
2018-07-06T22:42:12.246Z,9.40
2018-07-06T22:44:40.679Z,6.10
2018-07-06T22:47:09.485Z,7.13
2018-07-06T22:49:38.243Z,5.60
2018-07-06T22:52:07.068Z,7.23
2018-07-06T22:54:35.988Z,5.60
2018-07-06T22:57:04.511Z,10.27
2018-07-06T22:59:33.118Z,9.33
2018-07-06T23:02:01.803Z,5.13
2018-07-06T23:04:30.272Z,6.10
2018-07-06T23:06:58.817Z,5.63
2018-07-06T23:09:27.296Z,5.27
2018-07-06T23:11:56.080Z,6.77
2018-07-06T23:14:24.539Z,5.53
2018-07-06T23:16:53.032Z,3.97
2018-07-06T23:19:21.436Z,6.27
2018-07-06T23:21:49.953Z,6.43
2018-07-06T23:24:18.529Z,6.27
2018-07-06T23:26:47.049Z,4.73
2018-07-06T23:29:15.677Z,7.33
2018-07-06T23:31:43.972Z,9.17
2018-07-06T23:34:12.528Z,6.07
2018-07-06T23:36:41.006Z,4.57
2018-07-06T23:39:09.687Z,8.03
2018-07-06T23:41:38.202Z,5.70
2018-07-06T23:44:06.760Z,5.97
2018-07-06T23:46:35.314Z,9.13
2018-07-06T23:49:03.884Z,5.97
2018-07-06T23:51:32.280Z,6.03
2018-07-06T23:54:00.864Z,6.20
2018-07-06T23:56:29.537Z,6.27
2018-07-06T23:58:58.209Z,4.23
